createdAt,value
2019-01-21T00:00:07.491Z,100602.16
2019-01-21T00:00:55.985Z,100601.81
2019-01-21T00:01:34.636Z,100594.92
2019-01-21T00:02:10.712Z,100603.36
2019-01-21T00:02:46.700Z,100592.23
2019-01-21T00:03:22.802Z,100597.74
2019-01-21T00:03:58.654Z,100599.77
2019-01-21T00:04:34.576Z,100596.38
2019-01-21T00:05:10.300Z,100591.63
2019-01-21T00:05:46.325Z,100597.64
2019-01-21T00:06:22.097Z,100599.27
2019-01-21T00:06:58.081Z,100601.08
2019-01-21T00:07:34.067Z,100602.34
2019-01-21T00:08:09.895Z,100598.45
2019-01-21T00:08:46.220Z,100600.58
2019-01-21T00:09:22.412Z,100593.28
2019-01-21T00:09:58.298Z,100597.49
2019-01-21T00:10:34.546Z,100600.98
2019-01-21T00:11:10.296Z,100598.15
2019-01-21T00:11:46.387Z,100599.72
2019-01-21T00:12:22.230Z,100598.09
2019-01-21T00:12:58.000Z,100599.00
2019-01-21T00:13:33.772Z,100597.91
2019-01-21T00:14:09.559Z,100592.59
2019-01-21T00:14:45.279Z,100592.09
2019-01-21T00:15:21.557Z,100594.20
2019-01-21T00:15:57.686Z,100596.78
2019-01-21T00:16:33.690Z,100593.28
2019-01-21T00:17:09.503Z,100600.86
2019-01-21T00:17:45.263Z,100599.66
2019-01-21T00:18:21.119Z,100598.76
2019-01-21T00:18:57.026Z,100603.95
2019-01-21T00:19:33.552Z,100606.89
2019-01-21T00:20:09.485Z,100596.23
2019-01-21T00:20:45.217Z,100606.44
2019-01-21T00:21:21.058Z,100606.58
2019-01-21T00:21:56.856Z,100602.64
2019-01-21T00:22:32.912Z,100602.42
2019-01-21T00:23:08.631Z,100607.24
2019-01-21T00:23:44.349Z,100600.07
2019-01-21T00:24:20.338Z,100605.50
2019-01-21T00:24:56.810Z,100599.27
2019-01-21T00:25:32.775Z,100609.77
2019-01-21T00:26:08.491Z,100610.22
2019-01-21T00:26:44.186Z,100607.64
2019-01-21T00:27:19.941Z,100603.41
2019-01-21T00:27:55.678Z,100608.44
2019-01-21T00:28:31.648Z,100611.77
2019-01-21T00:29:07.411Z,100603.59
2019-01-21T00:29:43.182Z,100606.16
2019-01-21T00:30:18.920Z,100610.05
2019-01-21T00:30:54.817Z,100610.00
2019-01-21T00:31:30.651Z,100604.45
2019-01-21T00:32:06.382Z,100601.16
2019-01-21T00:32:42.410Z,100613.08
2019-01-21T00:33:18.180Z,100606.27
2019-01-21T00:33:54.072Z,100613.70
2019-01-21T00:34:30.464Z,100611.48
2019-01-21T00:35:06.389Z,100607.70
2019-01-21T00:35:42.236Z,100613.61
2019-01-21T00:36:18.140Z,100611.13
2019-01-21T00:36:54.679Z,100615.67
2019-01-21T00:37:30.600Z,100611.03
2019-01-21T00:38:06.687Z,100616.44
2019-01-21T00:38:42.665Z,100616.94
2019-01-21T00:39:18.641Z,100612.70
2019-01-21T00:39:54.536Z,100614.87
2019-01-21T00:40:30.791Z,100617.84
2019-01-21T00:41:06.793Z,100615.84
2019-01-21T00:41:42.623Z,100617.09
2019-01-21T00:42:18.687Z,100617.73
2019-01-21T00:42:54.530Z,100612.20
2019-01-21T00:43:30.346Z,100619.28
2019-01-21T00:44:06.048Z,100621.30
2019-01-21T00:44:42.076Z,100621.34
2019-01-21T00:45:17.988Z,100616.70
2019-01-21T00:45:53.928Z,100617.34
2019-01-21T00:46:29.936Z,100614.87
2019-01-21T00:47:06.081Z,100623.35
2019-01-21T00:47:41.890Z,100614.34
2019-01-21T00:48:17.682Z,100621.08
2019-01-21T00:48:53.661Z,100618.13
2019-01-21T00:49:29.400Z,100618.66
2019-01-21T00:50:06.080Z,100622.56
2019-01-21T00:50:41.782Z,100616.08
2019-01-21T00:51:17.802Z,100619.81
2019-01-21T00:51:53.781Z,100623.00
2019-01-21T00:52:29.828Z,100616.18
2019-01-21T00:53:05.805Z,100625.55
2019-01-21T00:53:42.115Z,100625.14
2019-01-21T00:54:18.413Z,100626.40
2019-01-21T00:54:54.173Z,100620.37
2019-01-21T00:55:29.952Z,100620.32
2019-01-21T00:56:05.688Z,100620.78
2019-01-21T00:56:41.428Z,100625.09
2019-01-21T00:57:17.210Z,100625.83
2019-01-21T00:57:53.079Z,100628.30
2019-01-21T00:58:29.036Z,100618.70
2019-01-21T00:59:04.966Z,100621.98
2019-01-21T00:59:41.001Z,100618.13
2019-01-21T01:00:20.169Z,100625.71
2019-01-21T01:00:55.901Z,100621.80
2019-01-21T01:01:31.636Z,100619.40
2019-01-21T01:02:07.348Z,100625.66
2019-01-21T01:02:43.121Z,100622.68
2019-01-21T01:03:18.884Z,100627.63
2019-01-21T01:03:54.863Z,100630.20
2019-01-21T01:04:30.984Z,100626.19
2019-01-21T01:05:08.636Z,100619.97
2019-01-21T01:05:44.382Z,100618.70
2019-01-21T01:06:20.746Z,100622.33
2019-01-21T01:06:56.474Z,100618.44
2019-01-21T01:07:32.429Z,100626.64
2019-01-21T01:08:08.140Z,100619.47
2019-01-21T01:08:44.583Z,100617.68
2019-01-21T01:09:20.642Z,100625.20
2019-01-21T01:09:56.403Z,100619.59
2019-01-21T01:10:32.111Z,100627.22
2019-01-21T01:11:07.952Z,100631.02
2019-01-21T01:11:43.677Z,100624.97
2019-01-21T01:12:19.778Z,100629.16
2019-01-21T01:12:55.488Z,100624.24
2019-01-21T01:13:31.214Z,100630.16
2019-01-21T01:14:06.931Z,100628.03
2019-01-21T01:14:42.935Z,100626.24
2019-01-21T01:15:18.996Z,100631.30
2019-01-21T01:15:54.730Z,100635.99
2019-01-21T01:16:30.439Z,100637.27
2019-01-21T01:17:06.461Z,100625.33
2019-01-21T01:17:42.485Z,100627.45
2019-01-21T01:18:18.303Z,100633.13
2019-01-21T01:18:54.037Z,100632.20
2019-01-21T01:19:29.747Z,100630.38
2019-01-21T01:20:09.108Z,100634.22
2019-01-21T01:20:44.839Z,100639.78
2019-01-21T01:21:20.609Z,100639.38
2019-01-21T01:21:56.364Z,100638.01
2019-01-21T01:22:32.454Z,100639.73
2019-01-21T01:23:08.167Z,100635.77
2019-01-21T01:23:43.888Z,100636.98
2019-01-21T01:24:19.677Z,100642.38
2019-01-21T01:24:55.395Z,100638.59
2019-01-21T01:25:31.165Z,100637.45
2019-01-21T01:26:06.891Z,100640.36
2019-01-21T01:26:42.879Z,100639.05
2019-01-21T01:27:18.626Z,100641.52
2019-01-21T01:27:54.389Z,100635.08
2019-01-21T01:28:30.085Z,100640.13
2019-01-21T01:29:05.803Z,100638.36
2019-01-21T01:29:42.141Z,100641.47
2019-01-21T01:30:18.604Z,100636.02
2019-01-21T01:30:54.318Z,100641.57
2019-01-21T01:31:30.029Z,100639.55
2019-01-21T01:32:05.725Z,100634.70
2019-01-21T01:32:41.471Z,100633.87
2019-01-21T01:33:17.208Z,100634.12
2019-01-21T01:33:53.215Z,100640.02
2019-01-21T01:34:29.541Z,100636.05
2019-01-21T01:35:05.940Z,100636.11
2019-01-21T01:35:41.788Z,100636.19
2019-01-21T01:36:17.507Z,100635.08
2019-01-21T01:36:53.503Z,100640.08
2019-01-21T01:37:30.071Z,100637.85
2019-01-21T01:38:05.787Z,100632.67
2019-01-21T01:38:41.605Z,100634.39
2019-01-21T01:39:17.353Z,100635.38
2019-01-21T01:39:53.105Z,100639.52
2019-01-21T01:40:29.259Z,100635.70
2019-01-21T01:41:05.323Z,100640.35
2019-01-21T01:41:41.026Z,100632.67
2019-01-21T01:42:16.758Z,100632.63
2019-01-21T01:42:52.581Z,100636.59
2019-01-21T01:43:28.262Z,100632.80
2019-01-21T01:44:03.984Z,100636.69
2019-01-21T01:44:39.930Z,100634.85
2019-01-21T01:45:20.493Z,100635.25
2019-01-21T01:45:56.481Z,100638.81
2019-01-21T01:46:32.325Z,100635.43
2019-01-21T01:47:08.271Z,100640.02
2019-01-21T01:47:44.809Z,100634.92
2019-01-21T01:48:20.751Z,100634.06
2019-01-21T01:48:56.801Z,100633.99
2019-01-21T01:49:32.595Z,100637.45
2019-01-21T01:50:08.854Z,100637.09
2019-01-21T01:50:44.661Z,100629.87
2019-01-21T01:51:20.391Z,100635.95
2019-01-21T01:51:56.141Z,100637.55
2019-01-21T01:52:32.125Z,100633.66
2019-01-21T01:53:07.807Z,100634.50
2019-01-21T01:53:43.518Z,100634.50
2019-01-21T01:54:19.297Z,100635.55
2019-01-21T01:54:55.268Z,100634.57
2019-01-21T01:55:31.951Z,100635.78
2019-01-21T01:56:08.256Z,100634.52
2019-01-21T01:56:43.983Z,100639.52
2019-01-21T01:57:20.188Z,100642.04
2019-01-21T01:57:59.092Z,100633.53
2019-01-21T01:58:35.087Z,100635.61
2019-01-21T01:59:10.796Z,100634.80
2019-01-21T01:59:46.857Z,100633.89
2019-01-21T02:00:22.596Z,100631.36
2019-01-21T02:00:58.343Z,100636.81
2019-01-21T02:01:34.321Z,100638.18
2019-01-21T02:02:10.030Z,100638.48
2019-01-21T02:02:46.125Z,100633.81
2019-01-21T02:03:21.971Z,100637.16
2019-01-21T02:03:57.807Z,100643.28
2019-01-21T02:04:33.517Z,100637.32
2019-01-21T02:05:09.801Z,100636.92
2019-01-21T02:05:45.606Z,100634.88
2019-01-21T02:06:21.586Z,100636.34
2019-01-21T02:06:57.327Z,100638.77
2019-01-21T02:07:33.584Z,100636.97
2019-01-21T02:08:09.382Z,100632.17
2019-01-21T02:08:45.244Z,100639.09
2019-01-21T02:09:21.072Z,100642.44
2019-01-21T02:09:56.763Z,100642.44
2019-01-21T02:10:32.743Z,100640.25
2019-01-21T02:11:08.960Z,100639.74
2019-01-21T02:11:44.658Z,100638.75
2019-01-21T02:12:20.380Z,100638.70
2019-01-21T02:12:56.099Z,100643.17
2019-01-21T02:13:31.835Z,100637.27
2019-01-21T02:14:07.528Z,100643.63
2019-01-21T02:14:43.242Z,100639.28
2019-01-21T02:15:18.950Z,100644.44
2019-01-21T02:15:54.741Z,100641.33
2019-01-21T02:16:30.462Z,100645.65
2019-01-21T02:17:06.179Z,100639.56
2019-01-21T02:17:42.186Z,100649.44
2019-01-21T02:18:18.228Z,100640.82
2019-01-21T02:18:53.986Z,100646.86
2019-01-21T02:19:30.706Z,100639.50
2019-01-21T02:20:08.594Z,100650.11
2019-01-21T02:20:46.017Z,100649.98
2019-01-21T02:21:23.907Z,100647.86
2019-01-21T02:22:00.430Z,100647.48
2019-01-21T02:22:38.683Z,100647.88
2019-01-21T02:23:18.593Z,100646.78
2019-01-21T02:23:59.801Z,100645.41
2019-01-21T02:24:39.436Z,100647.98
2019-01-21T02:25:15.140Z,100642.81
2019-01-21T02:25:54.107Z,100641.55
2019-01-21T02:26:32.719Z,100649.14
2019-01-21T02:27:34.307Z,100638.87
2019-01-21T02:28:43.073Z,100644.37
2019-01-21T02:29:37.518Z,100638.79
2019-01-21T02:30:37.702Z,100647.16
2019-01-21T02:31:50.204Z,100640.47
2019-01-21T02:32:51.643Z,100640.07
2019-01-21T02:34:20.232Z,100636.45
2019-01-21T02:35:44.750Z,100640.69
2019-01-21T02:36:57.459Z,100636.61
2019-01-21T02:38:02.116Z,100635.30
2019-01-21T02:39:28.274Z,100636.96
2019-01-21T02:40:11.722Z,100639.38
2019-01-21T02:41:31.467Z,100628.64
2019-01-21T02:42:15.981Z,100630.60
2019-01-21T02:43:22.254Z,100630.98
2019-01-21T02:44:22.507Z,100626.87
2019-01-21T02:45:20.954Z,100628.70
2019-01-21T02:46:11.869Z,100629.95
2019-01-21T02:46:56.867Z,100628.00
2019-01-21T02:48:00.043Z,100622.73
2019-01-21T02:49:09.944Z,100629.83
2019-01-21T02:50:45.007Z,100626.95
2019-01-21T02:52:16.653Z,100582.48
2019-01-21T02:53:15.842Z,100633.95
2019-01-21T02:54:34.901Z,100635.54
2019-01-21T02:55:40.723Z,100638.47
2019-01-21T02:57:24.568Z,100637.73
2019-01-21T02:58:42.642Z,100636.83
2019-01-21T02:59:40.940Z,100637.92
2019-01-21T03:00:44.900Z,100639.86
2019-01-21T03:02:16.647Z,100638.44
2019-01-21T03:03:27.929Z,100636.31
2019-01-21T03:04:42.476Z,100636.27
2019-01-21T03:06:07.448Z,100631.09
2019-01-21T03:06:53.007Z,100634.09
2019-01-21T03:07:40.754Z,100627.06
2019-01-21T03:08:49.243Z,100634.30
2019-01-21T03:09:58.530Z,100627.11
2019-01-21T03:10:54.904Z,100626.05
2019-01-21T03:12:13.004Z,100635.73
2019-01-21T03:13:09.536Z,100637.69
2019-01-21T03:14:20.380Z,100630.98
2019-01-21T03:15:25.242Z,100632.56
2019-01-21T03:16:39.893Z,100630.92
2019-01-21T03:17:41.539Z,100630.44
2019-01-21T03:18:58.471Z,100627.70
2019-01-21T03:20:14.123Z,100630.36
2019-01-21T03:21:23.527Z,100628.64
2019-01-21T03:22:38.766Z,100626.69
2019-01-21T03:23:51.619Z,100618.47
2019-01-21T03:24:48.053Z,100616.43
2019-01-21T03:25:41.165Z,100621.40
2019-01-21T03:26:47.173Z,100626.05
2019-01-21T03:28:09.935Z,100623.66
2019-01-21T03:29:10.409Z,100623.66
2019-01-21T03:30:12.481Z,100623.92
2019-01-21T03:31:38.306Z,100629.05
2019-01-21T03:32:48.221Z,100618.37
2019-01-21T03:33:55.829Z,100618.62
2019-01-21T03:35:13.436Z,100622.11
2019-01-21T03:36:24.555Z,100620.22
2019-01-21T03:37:52.055Z,100623.87
2019-01-21T03:39:07.533Z,100624.13
2019-01-21T03:40:21.594Z,100626.28
2019-01-21T03:41:05.417Z,100618.71
2019-01-21T03:42:14.891Z,100631.30
2019-01-21T03:43:05.605Z,100630.84
2019-01-21T03:44:23.104Z,100637.09
2019-01-21T03:45:31.623Z,100629.07
2019-01-21T03:46:52.881Z,100635.43
2019-01-21T03:47:58.645Z,100623.75
2019-01-21T03:48:41.121Z,100636.80
2019-01-21T03:49:28.002Z,100634.17
2019-01-21T03:50:44.889Z,100635.38
2019-01-21T03:52:12.478Z,100635.70
2019-01-21T03:53:12.784Z,100635.06
2019-01-21T03:54:24.683Z,100637.25
2019-01-21T03:55:05.261Z,100635.33
2019-01-21T03:55:41.210Z,100643.03
2019-01-21T03:56:33.511Z,100638.72
2019-01-21T03:57:28.561Z,100641.38
2019-01-21T03:58:33.534Z,100639.00
2019-01-21T03:59:18.358Z,100634.73
2019-01-21T04:00:13.110Z,100640.44
2019-01-21T04:01:02.335Z,100638.98
2019-01-21T04:02:30.299Z,100632.45
2019-01-21T04:03:39.319Z,100635.02
2019-01-21T04:04:51.663Z,100635.42
2019-01-21T04:06:05.381Z,100640.13
2019-01-21T04:06:47.448Z,100639.88
2019-01-21T04:07:54.531Z,100643.70
2019-01-21T04:08:56.809Z,100636.14
2019-01-21T04:10:15.170Z,100641.59
2019-01-21T04:11:43.931Z,100635.28
2019-01-21T04:13:03.601Z,100637.61
2019-01-21T04:14:31.044Z,100642.24
2019-01-21T04:16:05.479Z,100643.80
2019-01-21T04:17:17.590Z,100642.53
2019-01-21T04:18:24.652Z,100637.26
2019-01-21T04:19:23.113Z,100636.14
2019-01-21T04:20:22.627Z,100638.92
2019-01-21T04:21:54.276Z,100640.66
2019-01-21T04:23:28.705Z,100641.06
2019-01-21T04:24:36.169Z,100644.91
2019-01-21T04:25:45.785Z,100641.19
2019-01-21T04:26:44.275Z,100644.56
2019-01-21T04:27:52.717Z,100648.38
2019-01-21T04:29:05.021Z,100648.30
2019-01-21T04:30:18.640Z,100647.77
2019-01-21T04:31:29.088Z,100642.94
2019-01-21T04:32:23.797Z,100649.86
2019-01-21T04:33:43.392Z,100651.16
2019-01-21T04:35:11.894Z,100652.95
2019-01-21T04:36:10.475Z,100652.90
2019-01-21T04:37:13.826Z,100649.97
2019-01-21T04:38:27.551Z,100653.81
2019-01-21T04:39:31.144Z,100646.79
2019-01-21T04:40:43.315Z,100651.83
2019-01-21T04:41:33.186Z,100654.28
2019-01-21T04:42:30.961Z,100651.77
2019-01-21T04:44:14.849Z,100654.69
2019-01-21T04:45:25.327Z,100653.09
2019-01-21T04:46:48.576Z,100650.03
2019-01-21T04:48:07.306Z,100655.55
2019-01-21T04:49:16.034Z,100655.88
2019-01-21T04:50:25.000Z,100659.13
2019-01-21T04:51:27.644Z,100655.55
2019-01-21T04:52:49.658Z,100657.67
2019-01-21T04:54:02.298Z,100655.02
2019-01-21T04:55:00.370Z,100660.17
2019-01-21T04:56:23.591Z,100657.59
2019-01-21T04:57:36.130Z,100654.49
2019-01-21T04:58:47.234Z,100650.97
2019-01-21T05:00:02.777Z,100655.94
2019-01-21T05:01:01.493Z,100653.34
2019-01-21T05:02:14.071Z,100652.56
2019-01-21T05:03:38.493Z,100652.44
2019-01-21T05:04:49.423Z,100659.20
2019-01-21T05:06:15.667Z,100661.30
2019-01-21T05:07:43.923Z,100656.59
2019-01-21T05:08:55.066Z,100653.36
2019-01-21T05:09:57.081Z,100654.59
2019-01-21T05:11:07.949Z,100654.08
2019-01-21T05:12:17.997Z,100652.23
2019-01-21T05:13:08.842Z,100664.80
2019-01-21T05:14:27.231Z,100665.14
2019-01-21T05:15:40.067Z,100655.87
2019-01-21T05:16:42.870Z,100656.66
2019-01-21T05:18:11.616Z,100658.13
2019-01-21T05:19:21.084Z,100652.95
2019-01-21T05:20:39.468Z,100651.97
2019-01-21T05:22:00.913Z,100657.92
2019-01-21T05:23:18.500Z,100658.11
2019-01-21T05:24:33.361Z,100654.75
2019-01-21T05:25:40.488Z,100662.62
2019-01-21T05:26:50.269Z,100664.49
2019-01-21T05:28:10.746Z,100659.39
2019-01-21T05:29:25.645Z,100663.08
2019-01-21T05:30:37.256Z,100666.28
2019-01-21T05:31:39.792Z,100664.47
2019-01-21T05:32:40.849Z,100665.55
2019-01-21T05:34:09.233Z,100668.31
2019-01-21T05:35:41.133Z,100668.25
2019-01-21T05:37:07.412Z,100669.97
2019-01-21T05:38:07.464Z,100670.83
2019-01-21T05:39:26.564Z,100664.34
2019-01-21T05:40:22.200Z,100666.34
2019-01-21T05:41:27.385Z,100668.92
2019-01-21T05:42:42.261Z,100668.52
2019-01-21T05:44:01.842Z,100672.64
2019-01-21T05:44:55.401Z,100679.09
2019-01-21T05:46:09.555Z,100678.26
2019-01-21T05:47:09.342Z,100681.17
2019-01-21T05:48:11.911Z,100677.89
2019-01-21T05:49:28.340Z,100685.05
2019-01-21T05:50:30.286Z,100678.47
2019-01-21T05:51:21.851Z,100682.59
2019-01-21T05:52:39.396Z,100679.27
2019-01-21T05:53:54.891Z,100684.25
2019-01-21T05:55:12.918Z,100684.19
2019-01-21T05:56:47.469Z,100679.34
2019-01-21T05:58:01.519Z,100691.53
2019-01-21T05:59:19.395Z,100693.80
2019-01-21T06:00:28.093Z,100690.20
2019-01-21T06:01:43.782Z,100693.12
2019-01-21T06:03:11.039Z,100694.05
2019-01-21T06:04:14.594Z,100696.29
2019-01-21T06:05:06.650Z,100694.11
2019-01-21T06:06:26.986Z,100697.03
2019-01-21T06:07:42.690Z,100700.50
2019-01-21T06:09:01.204Z,100697.30
2019-01-21T06:10:11.104Z,100700.28
2019-01-21T06:11:00.847Z,100698.47
2019-01-21T06:12:38.612Z,100698.80
2019-01-21T06:13:55.775Z,100706.03
2019-01-21T06:15:11.832Z,100695.09
2019-01-21T06:16:10.445Z,100689.71
2019-01-21T06:17:02.937Z,100696.75
2019-01-21T06:18:31.670Z,100696.41
2019-01-21T06:19:33.735Z,100693.70
2019-01-21T06:20:32.198Z,100694.91
2019-01-21T06:21:45.271Z,100698.25
2019-01-21T06:22:47.072Z,100696.56
2019-01-21T06:23:46.580Z,100694.75
2019-01-21T06:24:34.140Z,100700.77
2019-01-21T06:25:43.421Z,100702.77
2019-01-21T06:27:12.093Z,100704.18
2019-01-21T06:28:29.126Z,100708.33
2019-01-21T06:29:50.932Z,100700.00
2019-01-21T06:31:11.337Z,100706.23
2019-01-21T06:31:59.006Z,100713.58
2019-01-21T06:33:12.930Z,100705.63
2019-01-21T06:34:16.736Z,100713.19
2019-01-21T06:35:10.257Z,100715.39
2019-01-21T06:36:08.901Z,100715.70
2019-01-21T06:37:10.893Z,100704.43
2019-01-21T06:37:53.096Z,100706.52
2019-01-21T06:39:10.444Z,100661.15
2019-01-21T06:40:14.489Z,100708.48
2019-01-21T06:41:34.883Z,100717.30
2019-01-21T06:43:02.287Z,100708.42
2019-01-21T06:44:24.987Z,100710.72
2019-01-21T06:45:19.602Z,100710.32
2019-01-21T06:46:31.266Z,100712.28
2019-01-21T06:47:50.465Z,100707.16
2019-01-21T06:49:04.770Z,100709.20
2019-01-21T06:50:14.425Z,100716.09
2019-01-21T06:51:28.895Z,100711.42
2019-01-21T06:52:35.970Z,100703.47
2019-01-21T06:53:40.562Z,100712.50
2019-01-21T06:54:38.764Z,100710.16
2019-01-21T06:55:30.798Z,100718.03
2019-01-21T06:56:57.616Z,100711.52
2019-01-21T06:58:06.319Z,100713.39
2019-01-21T06:59:28.820Z,100712.93
2019-01-21T07:00:41.002Z,100717.36
2019-01-21T07:01:49.153Z,100713.55
2019-01-21T07:02:57.354Z,100712.69
2019-01-21T07:04:08.039Z,100710.55
2019-01-21T07:05:06.382Z,100710.94
2019-01-21T07:06:37.113Z,100714.59
2019-01-21T07:07:48.247Z,100712.30
2019-01-21T07:09:23.191Z,100713.73
2019-01-21T07:10:42.972Z,100717.11
2019-01-21T07:12:02.667Z,100724.15
2019-01-21T07:13:00.673Z,100718.83
2019-01-21T07:13:56.819Z,100716.95
2019-01-21T07:15:06.942Z,100718.37
2019-01-21T07:16:35.892Z,100719.52
2019-01-21T07:17:58.850Z,100722.28
2019-01-21T07:19:11.779Z,100716.55
2019-01-21T07:20:29.801Z,100717.53
2019-01-21T07:22:00.737Z,100721.63
2019-01-21T07:23:08.524Z,100724.27
2019-01-21T07:24:20.868Z,100718.31
2019-01-21T07:25:27.927Z,100713.28
2019-01-21T07:26:43.261Z,100715.19
2019-01-21T07:28:12.187Z,100720.22
2019-01-21T07:29:31.446Z,100722.38
2019-01-21T07:30:57.195Z,100714.13
2019-01-21T07:31:58.766Z,100717.91
2019-01-21T07:33:21.143Z,100717.67
2019-01-21T07:34:09.781Z,100719.48
2019-01-21T07:35:09.212Z,100716.08
2019-01-21T07:36:41.161Z,100720.80
2019-01-21T07:37:56.190Z,100711.49
2019-01-21T07:38:45.433Z,100706.34
2019-01-21T07:40:05.036Z,100701.97
2019-01-21T07:41:29.737Z,100711.49
2019-01-21T07:42:57.104Z,100710.64
2019-01-21T07:44:09.664Z,100709.66
2019-01-21T07:45:12.872Z,100715.15
2019-01-21T07:46:01.766Z,100715.36
2019-01-21T07:47:19.913Z,100707.06
2019-01-21T07:48:42.029Z,100722.30
2019-01-21T07:50:10.792Z,100715.20
2019-01-21T07:51:09.607Z,100716.62
2019-01-21T07:52:16.653Z,100712.13
2019-01-21T07:53:40.781Z,100709.33
2019-01-21T07:55:12.738Z,100713.97
2019-01-21T07:56:47.499Z,100721.07
2019-01-21T07:58:04.106Z,100717.69
2019-01-21T07:59:07.985Z,100718.08
2019-01-21T08:00:22.761Z,100722.48
2019-01-21T08:01:26.429Z,100732.28
2019-01-21T08:02:58.140Z,100733.94
2019-01-21T08:04:00.332Z,100726.95
2019-01-21T08:05:12.548Z,100732.42
2019-01-21T08:06:26.264Z,100732.89
2019-01-21T08:07:28.928Z,100741.63
2019-01-21T08:08:28.916Z,100735.67
2019-01-21T08:09:44.231Z,100731.20
2019-01-21T08:11:07.284Z,100738.26
2019-01-21T08:12:02.448Z,100736.57
2019-01-21T08:13:22.300Z,100732.27
2019-01-21T08:14:22.201Z,100741.23
2019-01-21T08:15:47.773Z,100729.80
2019-01-21T08:16:45.811Z,100729.80
2019-01-21T08:18:00.801Z,100734.88
2019-01-21T08:19:25.544Z,100730.75
2019-01-21T08:20:42.049Z,100723.70
2019-01-21T08:21:44.167Z,100733.79
2019-01-21T08:22:37.404Z,100731.01
2019-01-21T08:24:12.518Z,100724.63
2019-01-21T08:25:14.591Z,100730.27
2019-01-21T08:26:37.332Z,100721.64
2019-01-21T08:27:47.846Z,100733.73
2019-01-21T08:29:02.404Z,100727.60
2019-01-21T08:30:06.292Z,100736.23
2019-01-21T08:31:12.351Z,100728.19
2019-01-21T08:31:58.654Z,100732.78
2019-01-21T08:33:16.665Z,100734.16
2019-01-21T08:34:38.819Z,100735.30
2019-01-21T08:35:51.476Z,100735.76
2019-01-21T08:36:55.487Z,100735.30
2019-01-21T08:37:57.239Z,100736.62
2019-01-21T08:38:58.677Z,100742.18
2019-01-21T08:40:16.776Z,100740.59
2019-01-21T08:41:24.615Z,100741.52
2019-01-21T08:42:36.844Z,100743.16
2019-01-21T08:43:48.518Z,100741.08
2019-01-21T08:45:05.859Z,100741.90
2019-01-21T08:46:21.469Z,100739.98
2019-01-21T08:47:25.395Z,100746.67
2019-01-21T08:48:42.360Z,100754.12
2019-01-21T08:49:50.471Z,100752.52
2019-01-21T08:51:07.240Z,100753.50
2019-01-21T08:52:13.519Z,100756.73
2019-01-21T08:53:23.115Z,100754.31
2019-01-21T08:54:21.515Z,100757.92
2019-01-21T08:55:30.354Z,100761.44
2019-01-21T08:56:27.182Z,100759.31
2019-01-21T08:57:39.743Z,100758.08
2019-01-21T08:58:48.376Z,100758.75
2019-01-21T08:59:49.781Z,100756.52
2019-01-21T09:00:59.849Z,100762.37
2019-01-21T09:02:13.175Z,100759.55
2019-01-21T09:03:28.004Z,100757.10
2019-01-21T09:04:53.880Z,100757.34
2019-01-21T09:06:25.415Z,100755.73
2019-01-21T09:07:16.762Z,100761.36
2019-01-21T09:08:23.111Z,100758.99
2019-01-21T09:09:31.358Z,100759.39
2019-01-21T09:11:03.315Z,100762.73
2019-01-21T09:12:16.458Z,100764.17
2019-01-21T09:13:37.831Z,100758.31
2019-01-21T09:14:57.279Z,100761.47
2019-01-21T09:16:14.212Z,100756.64
2019-01-21T09:17:04.500Z,100764.34
2019-01-21T09:18:21.525Z,100767.66
2019-01-21T09:19:10.340Z,100770.01
2019-01-21T09:20:44.956Z,100771.67
2019-01-21T09:21:50.468Z,100776.45
2019-01-21T09:22:36.875Z,100779.94
2019-01-21T09:23:46.104Z,100780.97
2019-01-21T09:24:56.623Z,100782.40
2019-01-21T09:26:07.141Z,100779.42
2019-01-21T09:27:35.704Z,100779.47
2019-01-21T09:28:31.135Z,100792.50
2019-01-21T09:29:38.644Z,100780.64
2019-01-21T09:31:08.714Z,100790.13
2019-01-21T09:32:07.948Z,100792.85
2019-01-21T09:33:18.296Z,100798.01
2019-01-21T09:34:19.658Z,100788.70
2019-01-21T09:35:39.202Z,100792.45
2019-01-21T09:36:25.857Z,100793.81
2019-01-21T09:37:41.152Z,100791.38
2019-01-21T09:38:35.365Z,100790.69
2019-01-21T09:39:54.141Z,100790.11
2019-01-21T09:41:08.138Z,100799.08
2019-01-21T09:42:37.193Z,100805.11
2019-01-21T09:43:44.017Z,100800.25
2019-01-21T09:45:00.928Z,100799.61
2019-01-21T09:46:29.527Z,100807.40
2019-01-21T09:47:03.711Z,100788.23
2019-01-21T09:47:37.850Z,100798.34
2019-01-21T09:48:12.239Z,100798.20
2019-01-21T09:48:46.326Z,100794.30
2019-01-21T09:49:20.646Z,100788.38
2019-01-21T09:49:56.533Z,100796.42
2019-01-21T09:50:33.092Z,100789.19
2019-01-21T09:51:09.147Z,100796.93
2019-01-21T09:52:05.534Z,100798.16
2019-01-21T09:52:41.651Z,100798.24
2019-01-21T09:53:17.736Z,100797.94
2019-01-21T09:53:55.424Z,100788.12
2019-01-21T09:54:31.174Z,100798.03
2019-01-21T09:55:07.986Z,100796.53
2019-01-21T09:55:49.923Z,100799.09
2019-01-21T09:56:27.322Z,100791.64
2019-01-21T09:57:05.921Z,100792.00
2019-01-21T09:57:43.497Z,100790.33
2019-01-21T09:58:23.760Z,100787.89
2019-01-21T09:59:00.973Z,100784.54
2019-01-21T09:59:36.925Z,100786.55
2019-01-21T10:00:16.873Z,100791.98
2019-01-21T10:00:52.669Z,100780.09
2019-01-21T10:01:29.705Z,100783.88
2019-01-21T10:02:07.868Z,100781.80
2019-01-21T10:02:47.684Z,100778.00
2019-01-21T10:03:24.332Z,100785.14
2019-01-21T10:04:00.631Z,100780.44
2019-01-21T10:04:40.142Z,100782.63
2019-01-21T10:05:17.593Z,100787.23
2019-01-21T10:05:57.352Z,100777.86
2019-01-21T10:06:50.530Z,100777.91
2019-01-21T10:07:48.016Z,100775.42
2019-01-21T10:08:37.151Z,100785.16
2019-01-21T10:09:31.940Z,100783.89
2019-01-21T10:10:52.393Z,100788.59
2019-01-21T10:12:17.181Z,100781.08
2019-01-21T10:13:39.844Z,100779.45
2019-01-21T10:15:02.185Z,100776.32
2019-01-21T10:15:45.107Z,100782.74
2019-01-21T10:16:46.920Z,100779.89
2019-01-21T10:17:47.972Z,100779.13
2019-01-21T10:18:52.874Z,100779.66
2019-01-21T10:20:15.412Z,100776.88
2019-01-21T10:21:15.442Z,100780.44
2019-01-21T10:22:20.264Z,100777.98
2019-01-21T10:23:21.998Z,100775.13
2019-01-21T10:24:21.917Z,100775.70
2019-01-21T10:25:20.717Z,100775.94
2019-01-21T10:26:40.703Z,100777.62
2019-01-21T10:27:51.657Z,100768.95
2019-01-21T10:29:11.614Z,100765.02
2019-01-21T10:30:04.107Z,100760.75
2019-01-21T10:30:56.760Z,100760.50
2019-01-21T10:32:09.502Z,100755.61
2019-01-21T10:33:20.485Z,100757.22
2019-01-21T10:34:54.828Z,100755.02
2019-01-21T10:35:58.339Z,100756.55
2019-01-21T10:37:09.660Z,100748.70
2019-01-21T10:38:26.644Z,100745.64
2019-01-21T10:39:52.207Z,100746.22
2019-01-21T10:41:01.880Z,100741.16
2019-01-21T10:41:53.993Z,100744.52
2019-01-21T10:42:57.021Z,100736.13
2019-01-21T10:44:01.818Z,100735.37
2019-01-21T10:44:56.627Z,100740.48
2019-01-21T10:46:13.450Z,100730.73